Time;durP1;ratioP1;P1;durP2;ratioP2;P2;SDS_P1;SDS_P2;PMS_P1;PMS_P2;Temp;Humidity;BMP_temperature;BMP_pressure;BME280_temperature;BME280_humidity;BME280_pressure;Samples;Min_cycle;Max_cycle;Signal;HPM_P1;HPM_P2
2022/11/21 00:00:58;;;;;;;3.35;3.05;;;;;;;11.16;83.82;93641.78;5035163;28;20193;-68
2022/11/21 00:03:27;;;;;;;3.92;3.47;;;;;;;11.18;84.16;93622.84;5017417;28;20217;-68
2022/11/21 00:05:54;;;;;;;3.65;3.35;;;;;;;11.20;83.75;93633.50;5017768;28;20244;-68
2022/11/21 00:08:21;;;;;;;3.85;3.55;;;;;;;11.20;83.65;93637.06;5034993;28;20217;-69
2022/11/21 00:10:49;;;;;;;3.25;3.05;;;;;;;11.21;83.56;93615.75;5034752;28;20182;-69
2022/11/21 00:13:21;;;;;;;3.95;3.65;;;;;;;11.18;83.30;93622.06;5017578;28;20202;-69
2022/11/21 00:15:49;;;;;;;5.72;3.78;;;;;;;11.17;83.63;93606.69;5017806;28;20629;-69
2022/11/21 00:18:16;;;;;;;3.50;3.20;;;;;;;11.17;83.82;93614.97;5020867;28;20214;-69
2022/11/21 00:20:45;;;;;;;3.92;3.63;;;;;;;11.17;83.56;93593.69;4999315;28;20226;-69
2022/11/21 00:23:12;;;;;;;3.92;3.63;;;;;;;11.17;83.94;93613.00;4999706;28;20258;-69
2022/11/21 00:25:39;;;;;;;4.18;3.67;;;;;;;11.15;83.96;93618.13;4998354;28;20242;-68
2022/11/21 00:28:06;;;;;;;3.50;3.30;;;;;;;11.14;84.12;93619.28;4999366;28;20227;-68
2022/11/21 00:30:33;;;;;;;3.67;3.38;;;;;;;11.14;84.55;93615.75;4998667;28;20390;-68
2022/11/21 00:33:00;;;;;;;3.72;3.40;;;;;;;11.12;84.25;93596.84;4998682;28;20250;-68
2022/11/21 00:35:27;;;;;;;4.70;3.65;;;;;;;11.14;84.60;93577.91;4999332;28;20242;-68
2022/11/21 00:37:55;;;;;;;4.53;4.13;;;;;;;11.10;84.64;93593.66;5015252;28;20200;-68
2022/11/21 00:40:22;;;;;;;4.15;3.85;;;;;;;11.04;83.79;93582.25;4999296;28;20223;-68
2022/11/21 00:42:48;;;;;;;4.03;3.50;;;;;;;11.04;83.88;93571.22;4998389;28;20583;-68
2022/11/21 00:45:15;;;;;;;3.88;3.28;;;;;;;11.06;83.50;93581.84;4998908;28;20192;-68
2022/11/21 00:47:42;;;;;;;4.05;3.67;;;;;;;11.06;83.40;93576.31;5014482;28;20200;-68
2022/11/21 00:50:10;;;;;;;4.03;3.72;;;;;;;11.06;83.02;93560.56;4999282;28;20184;-68
2022/11/21 00:52:37;;;;;;;3.30;3.10;;;;;;;11.05;83.41;93561.75;4999038;28;20561;-68
2022/11/21 00:55:05;;;;;;;5.20;3.90;;;;;;;11.07;83.22;93564.91;4999031;28;20199;-68
2022/11/21 00:57:32;;;;;;;3.45;3.15;;;;;;;11.07;83.01;93558.56;4998614;28;20184;-68
2022/11/21 00:59:59;;;;;;;3.42;3.22;;;;;;;11.13;83.09;93567.25;4998995;28;20192;-68
2022/11/21 01:02:26;;;;;;;3.50;3.20;;;;;;;11.14;83.21;93574.34;4998354;28;20224;-68
2022/11/21 01:04:53;;;;;;;3.30;3.00;;;;;;;11.14;83.18;93557.81;4998085;28;20204;-68
2022/11/21 01:07:20;;;;;;;3.22;2.92;;;;;;;11.12;83.52;93547.16;4998755;28;20188;-68
2022/11/21 01:09:47;;;;;;;4.00;3.28;;;;;;;11.09;83.25;93539.66;5014113;28;20232;-68
2022/11/21 01:12:15;;;;;;;3.00;2.70;;;;;;;11.07;83.07;93533.75;4997804;28;20204;-68
2022/11/21 01:14:42;;;;;;;3.40;3.13;;;;;;;11.06;82.94;93548.72;4997848;28;20636;-68
2022/11/21 01:17:09;;;;;;;3.80;3.10;;;;;;;11.02;82.75;93553.47;5014009;28;20208;-68
2022/11/21 01:19:37;;;;;;;3.35;3.05;;;;;;;11.00;82.70;93544.78;5007815;28;20243;-68
2022/11/21 01:22:04;;;;;;;3.63;3.33;;;;;;;10.94;83.04;93547.16;5017531;28;20195;-68
2022/11/21 01:24:30;;;;;;;4.35;3.90;;;;;;;10.93;83.21;93548.34;5017590;28;20199;-68
2022/11/21 01:26:57;;;;;;;4.85;4.45;;;;;;;10.89;83.01;93552.25;5017330;28;20191;-68
2022/11/21 01:29:26;;;;;;;4.88;4.47;;;;;;;10.85;83.04;93560.50;5016596;28;20219;-69
2022/11/21 01:31:52;;;;;;;5.57;5.07;;;;;;;10.82;83.00;93569.56;5033518;28;20202;-69
2022/11/21 01:34:19;;;;;;;5.25;4.80;;;;;;;10.79;82.94;93567.63;5017029;28;20195;-69
2022/11/21 01:36:46;;;;;;;5.47;4.97;;;;;;;10.78;82.88;93563.25;5017082;28;20211;-68
2022/11/21 01:39:13;;;;;;;5.50;5.00;;;;;;;10.75;83.07;93530.97;5016992;28;20203;-68
2022/11/21 01:41:41;;;;;;;5.60;5.10;;;;;;;10.73;83.55;93536.06;5032982;28;20206;-69
2022/11/21 01:44:17;;;;;;;5.40;4.90;;;;;;;10.74;84.02;93532.91;5016839;28;20207;-69
2022/11/21 01:46:45;;;;;;;5.03;4.63;;;;;;;10.74;84.25;93546.69;5016717;28;20205;-68
2022/11/21 01:49:15;;;;;;;5.97;5.38;;;;;;;10.76;84.14;93525.06;5016306;28;20222;-69
2022/11/21 01:51:45;;;;;;;5.72;5.22;;;;;;;10.76;83.93;93522.28;5016888;28;20210;-69
2022/11/21 01:54:14;;;;;;;5.07;4.68;;;;;;;10.71;83.86;93539.25;5016828;28;20249;-69
2022/11/21 01:56:45;;;;;;;4.70;4.30;;;;;;;10.72;84.23;93521.50;5016612;28;20203;-69
2022/11/21 01:59:16;;;;;;;5.18;4.57;;;;;;;10.76;84.56;93513.25;5016822;28;20210;-69
2022/11/21 02:01:43;;;;;;;4.97;4.40;;;;;;;10.81;84.28;93521.13;5016479;28;20206;-69
2022/11/21 02:04:11;;;;;;;4.75;4.35;;;;;;;10.78;84.21;93519.94;5016093;28;20199;-69
2022/11/21 02:06:38;;;;;;;5.65;5.00;;;;;;;10.81;83.90;93519.13;5016273;28;20215;-69
2022/11/21 02:09:06;;;;;;;4.97;4.57;;;;;;;10.78;83.85;93511.66;5016247;28;20216;-69
2022/11/21 02:11:36;;;;;;;5.05;4.55;;;;;;;10.78;83.58;93513.63;5016276;28;20202;-69
2022/11/21 02:14:03;;;;;;;5.32;4.82;;;;;;;10.76;83.82;93507.72;5016574;28;20195;-69
2022/11/21 02:16:31;;;;;;;4.50;3.80;;;;;;;10.80;83.64;93516.78;5016451;28;20199;-69
2022/11/21 02:18:57;;;;;;;5.10;4.18;;;;;;;10.83;83.90;93522.31;5016236;28;20659;-69
2022/11/21 02:21:35;;;;;;;4.43;4.03;;;;;;;10.87;84.11;93513.25;5016067;28;20211;-69
2022/11/21 02:24:06;;;;;;;4.70;4.28;;;;;;;10.87;83.32;93516.00;5016629;28;20207;-69
2022/11/21 02:26:35;;;;;;;4.85;4.45;;;;;;;10.85;83.37;93513.63;5015934;28;20202;-69
2022/11/21 02:29:01;;;;;;;5.20;4.32;;;;;;;10.86;83.24;93518.00;5015898;28;20571;-68
2022/11/21 02:31:28;;;;;;;3.88;3.58;;;;;;;10.88;83.48;93507.34;5016737;28;20202;-68
2022/11/21 02:33:55;;;;;;;4.30;3.90;;;;;;;10.89;83.11;93533.72;5015599;28;20203;-69
2022/11/21 02:36:37;;;;;;;5.03;4.63;;;;;;;10.90;83.33;93516.00;5016302;28;20199;-69
2022/11/21 02:39:05;;;;;;;5.28;4.75;;;;;;;10.89;83.38;93530.19;5015797;28;20202;-69
2022/11/21 02:41:35;;;;;;;6.22;4.70;;;;;;;10.90;82.92;93518.00;5015320;28;20199;-69
2022/11/21 02:44:07;;;;;;;4.40;3.75;;;;;;;10.91;83.01;93519.56;5015756;28;20199;-69
2022/11/21 02:46:34;;;;;;;4.30;4.00;;;;;;;10.89;83.35;93516.38;5015593;28;20203;-69
2022/11/21 02:49:04;;;;;;;4.30;3.90;;;;;;;10.87;83.24;93497.50;5015621;28;20229;-69
2022/11/21 02:51:31;;;;;;;4.50;4.10;;;;;;;10.91;83.30;93490.00;5015174;28;20198;-69
2022/11/21 02:53:58;;;;;;;4.53;4.13;;;;;;;10.94;83.18;93494.72;5015512;28;20210;-69
2022/11/21 02:56:24;;;;;;;4.50;4.07;;;;;;;10.95;82.79;93485.28;5016110;28;20561;-69
2022/11/21 02:58:57;;;;;;;5.95;4.38;;;;;;;10.94;82.98;93483.69;5015703;28;20199;-69
2022/11/21 03:01:24;;;;;;;4.82;4.40;;;;;;;10.94;83.47;93475.44;5015437;28;20199;-69
2022/11/21 03:03:51;;;;;;;6.03;4.55;;;;;;;10.91;83.48;93487.25;5015248;28;20214;-69
2022/11/21 03:06:17;;;;;;;4.78;3.92;;;;;;;10.87;83.55;93469.13;5015191;28;20195;-69
2022/11/21 03:08:45;;;;;;;5.10;3.90;;;;;;;10.87;83.64;93466.38;5015310;28;20222;-69
2022/11/21 03:11:12;;;;;;;4.70;4.00;;;;;;;10.90;83.60;93484.88;5015362;28;20199;-69
2022/11/21 03:13:38;;;;;;;4.43;4.05;;;;;;;10.91;84.29;93475.44;5014852;28;20207;-69
2022/11/21 03:16:06;;;;;;;3.95;3.65;;;;;;;10.92;83.99;93475.03;5015464;28;20535;-69
2022/11/21 03:18:33;;;;;;;4.00;2.90;;;;;;;10.95;83.61;93468.72;5016804;28;20203;-69
2022/11/21 03:21:00;;;;;;;4.05;3.00;;;;;;;11.00;83.61;93467.53;5018597;28;20198;-69
2022/11/21 03:23:27;;;;;;;4.07;2.88;;;;;;;11.04;83.05;93462.81;5018189;28;20210;-69
2022/11/21 03:25:54;;;;;;;3.92;2.53;;;;;;;11.06;83.01;93466.75;5018216;28;20201;-69
2022/11/21 03:28:20;;;;;;;2.92;2.65;;;;;;;11.11;82.94;93475.81;5018429;28;20273;-69
2022/11/21 03:30:47;;;;;;;2.92;2.45;;;;;;;11.13;82.13;93451.38;5018112;28;20194;-69
2022/11/21 03:33:15;;;;;;;3.75;2.30;;;;;;;11.16;82.12;93469.91;5035566;28;20202;-68
2022/11/21 03:35:42;;;;;;;4.07;2.55;;;;;;;11.19;82.45;93461.63;5017704;28;20618;-69
2022/11/21 03:38:08;;;;;;;4.25;3.08;;;;;;;11.20;82.26;93479.75;5035397;28;20249;-69
2022/11/21 03:40:36;;;;;;;4.28;3.10;;;;;;;11.22;81.62;93471.88;5018129;28;20252;-69
2022/11/21 03:43:04;;;;;;;4.90;2.38;;;;;;;11.25;79.94;93451.75;5035117;28;20182;-69
2022/11/21 03:45:31;;;;;;;4.18;1.98;;;;;;;11.37;78.77;93452.53;5017981;28;20256;-69
2022/11/21 03:47:58;;;;;;;2.58;1.83;;;;;;;11.50;76.36;93462.75;5034946;28;20205;-69
2022/11/21 03:50:26;;;;;;;3.45;1.58;;;;;;;11.62;76.34;93457.97;5018256;28;20210;-69
2022/11/21 03:52:52;;;;;;;3.97;1.90;;;;;;;11.70;76.26;93446.53;5017212;28;20197;-69
2022/11/21 03:55:19;;;;;;;2.50;1.33;;;;;;;11.72;73.20;93448.88;5017464;28;20525;-69
2022/11/21 03:57:46;;;;;;;2.88;1.80;;;;;;;11.82;72.75;93424.00;5017818;28;20625;-69
2022/11/21 04:00:14;;;;;;;3.17;2.70;;;;;;;11.86;72.91;93426.78;5017733;28;20190;-69
2022/11/21 04:02:41;;;;;;;2.35;1.17;;;;;;;11.95;70.95;93416.09;5017699;28;20645;-69
2022/11/21 04:05:08;;;;;;;3.25;1.40;;;;;;;12.12;69.50;93419.16;5017704;28;20206;-69
2022/11/21 04:07:36;;;;;;;4.10;1.40;;;;;;;12.24;69.09;93413.19;5017753;28;20190;-68
2022/11/21 04:10:04;;;;;;;4.15;1.50;;;;;;;12.33;67.69;93434.84;5017946;28;20214;-68
2022/11/21 04:12:30;;;;;;;3.65;1.42;;;;;;;12.39;68.13;93409.13;5018067;28;20202;-68
2022/11/21 04:14:57;;;;;;;5.97;1.70;;;;;;;12.44;67.48;93405.94;5034253;28;20268;-68
2022/11/21 04:17:24;;;;;;;3.10;1.77;;;;;;;12.47;68.30;93385.00;5017412;28;20239;-68
2022/11/21 04:19:51;;;;;;;4.05;1.70;;;;;;;12.47;68.71;93421.72;5014161;28;20239;-68
2022/11/21 04:22:17;;;;;;;2.72;1.27;;;;;;;12.51;68.02;93400.34;5014763;28;20541;-68
2022/11/21 04:24:45;;;;;;;3.15;1.50;;;;;;;12.53;67.35;93397.19;5014430;28;20199;-68
2022/11/21 04:27:12;;;;;;;3.22;1.70;;;;;;;12.55;68.19;93414.16;5014180;28;20203;-68
2022/11/21 04:29:39;;;;;;;3.53;1.50;;;;;;;12.57;67.30;93425.63;5014037;28;20230;-68
2022/11/21 04:32:06;;;;;;;2.78;1.60;;;;;;;12.62;67.51;93418.88;5014362;28;20199;-68
2022/11/21 04:34:32;;;;;;;3.65;1.30;;;;;;;12.63;67.39;93420.44;5014229;28;20199;-68
2022/11/21 04:36:59;;;;;;;5.60;1.52;;;;;;;12.66;67.03;93419.63;5014195;28;20203;-69
2022/11/21 04:39:26;;;;;;;4.78;1.77;;;;;;;12.67;67.35;93429.47;5013908;28;20203;-69
2022/11/21 04:41:54;;;;;;;4.80;1.77;;;;;;;12.67;67.56;93430.28;5014204;28;20643;-69
2022/11/21 04:44:21;;;;;;;3.92;1.70;;;;;;;12.69;66.87;93433.44;5013852;28;20198;-69
2022/11/21 04:46:48;;;;;;;3.60;1.45;;;;;;;12.69;67.53;93438.19;5014319;28;20215;-69
2022/11/21 04:49:15;;;;;;;2.78;1.65;;;;;;;12.71;66.20;93424.72;5030532;28;20241;-69
2022/11/21 04:51:41;;;;;;;3.45;1.60;;;;;;;12.72;67.39;93440.91;5014064;28;20195;-69
2022/11/21 04:54:08;;;;;;;3.95;1.48;;;;;;;12.72;66.34;93423.53;5030504;28;20203;-69
2022/11/21 04:56:35;;;;;;;4.10;1.75;;;;;;;12.72;66.56;93437.38;5014639;28;20187;-69
2022/11/21 04:59:03;;;;;;;4.50;1.83;;;;;;;12.71;66.32;93446.88;5014907;28;20253;-69
2022/11/21 05:01:30;;;;;;;3.22;1.70;;;;;;;12.72;65.37;93426.31;5014888;28;20187;-69
2022/11/21 05:03:56;;;;;;;3.25;2.00;;;;;;;12.74;65.74;93457.91;5016441;28;20508;-69
2022/11/21 05:06:24;;;;;;;3.08;1.50;;;;;;;12.74;65.90;93435.78;5017875;28;20198;-69
2022/11/21 05:08:51;;;;;;;4.57;1.60;;;;;;;12.76;65.45;93449.19;5018056;28;20187;-69
2022/11/21 05:14:03;;;;;;;3.42;1.65;;;;;;;12.76;63.92;93471.31;5017035;28;20238;-70
2022/11/21 05:16:32;;;;;;;4.00;1.58;;;;;;;12.78;64.30;93468.91;5017973;28;20522;-70
2022/11/21 05:18:59;;;;;;;3.80;1.40;;;;;;;12.78;63.88;93510.41;5017330;28;20249;-69
2022/11/21 05:21:26;;;;;;;2.90;1.35;;;;;;;12.72;63.78;93493.47;5018304;28;20249;-69
2022/11/21 05:23:53;;;;;;;2.35;1.48;;;;;;;12.72;64.13;93514.81;5034263;28;20195;-69
2022/11/21 05:26:21;;;;;;;3.47;2.17;;;;;;;12.73;63.67;93541.28;5017799;28;20635;-71
2022/11/21 05:28:48;;;;;;;4.00;1.65;;;;;;;12.77;63.54;93503.31;5017143;28;20199;-69
2022/11/21 05:31:16;;;;;;;2.10;1.23;;;;;;;12.80;62.96;93510.03;5018048;28;20625;-69
2022/11/21 05:33:43;;;;;;;2.97;1.45;;;;;;;12.75;63.23;93519.56;5018028;28;20191;-69
2022/11/21 05:36:10;;;;;;;2.17;1.30;;;;;;;12.76;62.69;93512.81;5016922;28;20206;-69
2022/11/21 05:38:37;;;;;;;3.33;1.67;;;;;;;12.76;62.85;93515.59;5018050;28;20218;-69
2022/11/21 05:41:04;;;;;;;2.72;1.38;;;;;;;12.74;62.96;93526.25;5016970;28;20199;-69
2022/11/21 05:43:44;;;;;;;3.22;1.55;;;;;;;12.68;63.77;93533.41;5017660;28;20195;-69
2022/11/21 05:46:11;;;;;;;2.00;1.25;;;;;;;12.34;64.91;93539.47;5033309;28;20227;-69
2022/11/21 05:48:41;;;;;;;1.30;1.10;;;;;;;11.72;66.47;93546.34;5017033;28;20203;-69
2022/11/21 05:51:08;;;;;;;0.93;0.90;;;;;;;11.23;66.59;93561.75;5016763;28;20265;-69
2022/11/21 05:53:35;;;;;;;0.95;0.93;;;;;;;10.76;67.90;93574.69;5017245;28;20395;-69
2022/11/21 05:56:04;;;;;;;0.90;0.90;;;;;;;10.18;69.59;93578.38;5017798;28;20196;-69
2022/11/21 05:58:31;;;;;;;1.25;1.15;;;;;;;9.85;69.73;93579.41;5017739;28;20183;-69
2022/11/21 06:00:58;;;;;;;1.17;1.08;;;;;;;9.51;70.65;93590.56;5017482;28;20199;-69
2022/11/21 06:03:27;;;;;;;0.90;0.90;;;;;;;9.47;71.56;93599.97;5017074;28;20647;-69
2022/11/21 06:06:00;;;;;;;2.30;1.10;;;;;;;9.28;71.71;93606.50;5017403;28;20179;-70
2022/11/21 06:08:27;;;;;;;0.90;0.90;;;;;;;9.16;72.37;93624.88;5016481;28;20199;-70
2022/11/21 06:10:54;;;;;;;0.80;0.80;;;;;;;9.12;71.82;93617.75;5016455;28;20211;-70
2022/11/21 06:13:23;;;;;;;1.15;0.90;;;;;;;9.18;72.14;93621.72;5016300;28;20202;-70
2022/11/21 06:15:52;;;;;;;0.85;0.85;;;;;;;9.00;72.08;93629.81;5016377;28;20210;-70
2022/11/21 06:18:19;;;;;;;1.08;1.05;;;;;;;8.73;72.63;93636.59;5032830;28;20198;-69
2022/11/21 06:20:45;;;;;;;1.00;1.00;;;;;;;8.75;72.64;93626.00;5015690;28;20285;-70
2022/11/21 06:23:14;;;;;;;0.80;0.80;;;;;;;8.67;72.95;93647.91;5016217;28;20207;-69
2022/11/21 06:25:41;;;;;;;0.80;0.80;;;;;;;8.76;72.81;93647.66;5016992;28;20203;-69
2022/11/21 06:28:08;;;;;;;1.10;1.00;;;;;;;8.82;72.33;93653.56;5016102;28;20230;-69
2022/11/21 06:30:35;;;;;;;1.20;1.10;;;;;;;8.83;71.77;93652.44;5016689;28;20269;-69
2022/11/21 06:33:04;;;;;;;1.02;1.00;;;;;;;8.71;71.63;93660.91;5015888;28;20615;-69
2022/11/21 06:35:33;;;;;;;1.20;1.10;;;;;;;8.59;72.35;93670.22;5015791;28;20188;-71
2022/11/21 06:38:00;;;;;;;1.63;1.52;;;;;;;8.60;72.75;93664.31;5016601;28;20266;-70
2022/11/21 06:40:28;;;;;;;1.73;1.42;;;;;;;8.61;73.62;93674.19;5015924;28;20195;-70
2022/11/21 06:42:55;;;;;;;1.15;1.08;;;;;;;8.66;74.62;93686.78;5015753;28;20277;-72
2022/11/21 06:45:22;;;;;;;1.27;1.00;;;;;;;8.54;75.01;93685.06;5016026;28;20214;-70
2022/11/21 06:47:49;;;;;;;0.80;0.75;;;;;;;8.62;74.99;93694.19;5016609;28;20195;-69
2022/11/21 06:50:16;;;;;;;0.80;0.80;;;;;;;8.78;74.57;93696.75;5016112;28;20219;-69
2022/11/21 06:52:43;;;;;;;1.65;0.90;;;;;;;8.79;73.82;93714.84;5016560;28;20212;-70
2022/11/21 06:55:11;;;;;;;1.33;0.80;;;;;;;8.53;73.58;93749.44;5015635;28;20207;-70
2022/11/21 06:57:39;;;;;;;1.13;0.80;;;;;;;8.43;72.85;93728.13;5016085;28;20516;-70
2022/11/21 07:00:08;;;;;;;0.70;0.70;;;;;;;8.07;74.95;93757.78;5016374;28;20190;-70
2022/11/21 07:02:35;;;;;;;0.90;0.90;;;;;;;7.92;75.22;93755.97;5031840;28;20191;-70
2022/11/21 07:05:02;;;;;;;1.27;1.02;;;;;;;7.66;75.93;93759.44;4999446;28;20192;-70
2022/11/21 07:07:29;;;;;;;0.88;0.80;;;;;;;7.48;77.27;93772.88;5016201;28;20210;-70
2022/11/21 07:09:55;;;;;;;1.17;1.08;;;;;;;7.45;77.84;93782.63;5016308;28;20214;-70
2022/11/21 07:15:11;;;;;;;1.45;1.13;;;;;;;7.38;77.88;93790.72;5014911;28;20555;-70
2022/11/21 07:17:38;;;;;;;1.35;1.10;;;;;;;7.45;78.77;93784.56;5015732;28;20203;-70
2022/11/21 07:20:09;;;;;;;1.70;1.60;;;;;;;7.49;77.42;93777.19;5015063;28;20231;-70
2022/11/21 07:22:35;;;;;;;1.20;1.10;;;;;;;7.60;77.49;93796.59;5016322;28;20253;-70
2022/11/21 07:25:02;;;;;;;1.35;1.15;;;;;;;7.65;77.05;93801.78;5016150;28;20600;-70
2022/11/21 07:27:29;;;;;;;1.58;1.27;;;;;;;7.67;76.72;93799.47;5014534;28;20195;-70
2022/11/21 07:29:57;;;;;;;1.23;1.13;;;;;;;7.59;76.61;93804.03;5014955;28;20221;-70
2022/11/21 07:32:26;;;;;;;0.95;0.95;;;;;;;7.61;76.22;93822.88;5015575;28;20210;-70
2022/11/21 07:34:53;;;;;;;1.00;1.00;;;;;;;7.60;76.75;93819.34;5015025;28;20203;-70
2022/11/21 07:37:20;;;;;;;2.58;1.50;;;;;;;7.60;76.51;93835.81;5014611;28;20260;-70
2022/11/21 07:39:47;;;;;;;1.48;1.10;;;;;;;7.58;76.38;93853.78;5015750;28;20543;-70
2022/11/21 07:42:14;;;;;;;1.00;1.00;;;;;;;7.60;76.22;93846.00;5031674;28;20269;-69
2022/11/21 07:44:41;;;;;;;1.10;1.10;;;;;;;7.60;76.22;93832.25;5015629;28;20203;-70
2022/11/21 07:47:08;;;;;;;0.70;0.70;;;;;;;7.50;76.64;93852.84;5014901;28;20191;-70
2022/11/21 07:49:36;;;;;;;0.98;0.90;;;;;;;7.48;76.47;93866.16;5015521;28;20206;-70
2022/11/21 07:52:03;;;;;;;1.02;1.02;;;;;;;7.48;75.92;93849.69;5015193;28;20207;-70
2022/11/21 07:54:30;;;;;;;1.25;1.20;;;;;;;7.44;75.76;93863.34;5015839;28;20195;-70
2022/11/21 07:56:58;;;;;;;1.40;1.30;;;;;;;7.47;76.14;93867.28;5014913;28;20195;-70
2022/11/21 07:59:25;;;;;;;1.10;1.10;;;;;;;7.56;75.79;93883.53;5015405;28;20192;-70
2022/11/21 08:01:52;;;;;;;1.30;1.20;;;;;;;7.60;75.58;93873.44;5015707;28;20179;-70
2022/11/21 08:04:19;;;;;;;1.20;1.20;;;;;;;7.68;76.19;93878.69;5015488;28;20191;-70
2022/11/21 08:06:47;;;;;;;1.90;1.80;;;;;;;7.61;74.54;93884.03;5015336;28;20199;-70
2022/11/21 08:09:14;;;;;;;2.25;2.00;;;;;;;7.59;75.59;93878.13;5015440;28;20245;-70
2022/11/21 08:11:41;;;;;;;1.33;1.20;;;;;;;7.59;75.35;93893.78;5015282;28;20199;-70
2022/11/21 08:14:08;;;;;;;1.00;1.00;;;;;;;7.51;75.46;93903.03;5014872;28;20206;-70
2022/11/21 08:16:35;;;;;;;1.23;1.13;;;;;;;7.55;75.50;93904.69;5014694;28;20198;-70
2022/11/21 08:19:01;;;;;;;1.40;1.30;;;;;;;7.58;74.89;93922.38;5020210;28;20249;-70
2022/11/21 08:21:30;;;;;;;2.35;1.23;;;;;;;7.57;74.43;93921.59;5035023;28;20182;-70
2022/11/21 08:23:58;;;;;;;1.20;1.10;;;;;;;7.63;75.68;93933.88;5034995;28;20194;-70
2022/11/21 08:26:26;;;;;;;1.30;1.20;;;;;;;7.69;75.47;93935.16;5035093;28;20194;-70
2022/11/21 08:28:52;;;;;;;1.23;1.20;;;;;;;7.71;75.42;93934.81;5017187;28;20626;-70
2022/11/21 08:31:19;;;;;;;1.23;1.13;;;;;;;7.77;75.39;93944.34;5017179;28;20226;-70
2022/11/21 08:33:46;;;;;;;1.30;1.20;;;;;;;7.72;74.85;93944.63;5017535;28;20524;-70
2022/11/21 08:36:12;;;;;;;0.90;0.90;;;;;;;7.75;74.76;93954.09;5017151;28;20202;-70
2022/11/21 08:38:39;;;;;;;1.30;1.20;;;;;;;7.82;75.41;93946.78;5019469;28;20202;-70
2022/11/21 08:43:52;;;;;;;1.25;1.10;;;;;;;7.83;74.41;93951.09;5021046;28;20194;-70
2022/11/21 08:46:18;;;;;;;1.20;1.10;;;;;;;7.76;74.79;93948.22;5021776;28;20203;-70
2022/11/21 08:48:45;;;;;;;1.33;1.23;;;;;;;7.81;75.05;93950.69;5021106;28;20642;-70
2022/11/21 08:51:13;;;;;;;0.95;0.90;;;;;;;7.74;74.24;93939.56;5020416;28;20276;-70
2022/11/21 08:53:40;;;;;;;1.35;1.25;;;;;;;7.85;75.16;93946.06;5021119;28;20195;-69
2022/11/21 08:56:09;;;;;;;1.25;1.23;;;;;;;7.90;74.76;93947.72;5021631;28;20201;-69
2022/11/21 08:58:35;;;;;;;1.45;1.35;;;;;;;7.98;74.62;93941.19;5038399;28;20195;-70
2022/11/21 09:01:04;;;;;;;1.40;1.30;;;;;;;8.02;74.75;93950.28;5020735;28;20285;-69
2022/11/21 09:03:31;;;;;;;1.40;1.40;;;;;;;8.06;75.38;93942.94;5020901;28;20420;-69
2022/11/21 09:05:58;;;;;;;3.15;2.72;;;;;;;8.11;74.85;93950.84;5021399;28;20289;-70
2022/11/21 09:08:24;;;;;;;1.20;1.20;;;;;;;8.14;75.02;93941.91;5038135;28;20212;-70
2022/11/21 09:10:51;;;;;;;1.38;1.27;;;;;;;8.17;75.02;93946.66;5020713;28;20678;-70
2022/11/21 09:13:19;;;;;;;1.10;1.10;;;;;;;8.18;74.83;93944.72;5037831;28;20201;-70
2022/11/21 09:18:30;;;;;;;1.95;1.73;;;;;;;8.20;75.42;93956.09;5020059;28;20198;-70
2022/11/21 09:20:57;;;;;;;1.85;1.48;;;;;;;8.20;75.72;93967.09;5037989;28;20202;-70
2022/11/21 09:23:24;;;;;;;1.70;1.60;;;;;;;8.20;75.78;93961.59;5020593;28;20194;-70
2022/11/21 09:25:50;;;;;;;1.40;1.30;;;;;;;8.18;75.29;93961.97;5037958;28;20232;-70
2022/11/21 09:28:19;;;;;;;1.58;1.48;;;;;;;8.16;75.40;93960.75;5037789;28;20268;-70
2022/11/21 09:30:48;;;;;;;2.30;2.10;;;;;;;8.14;75.74;93963.88;5020295;28;20229;-70
2022/11/21 09:33:16;;;;;;;1.85;1.35;;;;;;;8.04;74.98;93967.19;5037854;28;20182;-70
2022/11/21 09:35:44;;;;;;;2.10;1.90;;;;;;;8.00;75.09;93968.31;5037628;28;20214;-70
2022/11/21 09:38:11;;;;;;;2.00;1.83;;;;;;;7.90;75.35;93975.16;5020477;28;20202;-70
2022/11/21 09:40:41;;;;;;;1.60;1.50;;;;;;;7.85;75.43;93969.97;5020254;28;20241;-70
2022/11/21 09:43:23;;;;;;;1.35;1.25;;;;;;;7.84;75.53;93968.38;5020334;28;20194;-70
2022/11/21 09:45:51;;;;;;;1.70;1.60;;;;;;;7.82;75.52;93970.69;5037424;28;20218;-70
2022/11/21 09:48:21;;;;;;;1.92;1.83;;;;;;;7.77;75.56;93973.72;5020428;28;20248;-70
2022/11/21 09:50:50;;;;;;;1.60;1.50;;;;;;;7.70;75.70;93975.19;5037093;28;20618;-70
2022/11/21 09:53:20;;;;;;;1.30;1.30;;;;;;;7.58;75.14;93986.28;5037029;28;20493;-70
2022/11/21 09:55:50;;;;;;;2.40;1.77;;;;;;;7.52;75.32;93990.47;5037832;28;20240;-70
2022/11/21 09:58:26;;;;;;;1.83;1.65;;;;;;;7.46;75.77;94000.94;5019992;28;20317;-70
2022/11/21 10:00:53;;;;;;;1.88;1.77;;;;;;;7.35;75.88;94004.59;5020098;28;20203;-71
2022/11/21 10:03:21;;;;;;;1.70;1.60;;;;;;;7.36;76.12;93995.22;5019837;28;20606;-70
2022/11/21 10:05:52;;;;;;;1.80;1.70;;;;;;;7.32;75.88;94000.63;5019792;28;20210;-70
2022/11/21 10:08:34;;;;;;;2.05;1.85;;;;;;;7.08;75.34;94007.16;5019797;28;20213;-70
2022/11/21 10:11:11;;;;;;;1.85;1.75;;;;;;;7.08;75.78;94006.31;5019699;28;20210;-70
2022/11/21 10:13:58;;;;;;;1.80;1.70;;;;;;;7.17;76.00;94006.94;5036990;28;20201;-71
2022/11/21 10:16:29;;;;;;;1.70;1.60;;;;;;;7.17;75.87;94004.19;5019940;28;20198;-70
2022/11/21 10:19:25;;;;;;;2.10;1.60;;;;;;;7.24;76.55;94010.63;5016242;28;20685;-70
2022/11/21 10:22:08;;;;;;;2.03;1.85;;;;;;;7.14;74.91;94018.63;5016064;28;20195;-70
2022/11/21 10:24:41;;;;;;;2.10;1.98;;;;;;;7.24;75.95;94016.13;5016392;28;20248;-70
2022/11/21 10:27:12;;;;;;;2.38;2.25;;;;;;;7.22;75.49;94017.63;5032838;28;20199;-70
2022/11/21 10:29:44;;;;;;;1.92;1.83;;;;;;;7.21;75.88;94007.81;5015733;28;20203;-70
2022/11/21 10:32:15;;;;;;;2.20;2.00;;;;;;;7.23;75.55;94017.28;5015852;28;20214;-70
2022/11/21 10:34:42;;;;;;;2.33;2.13;;;;;;;7.22;74.92;94014.88;5016883;28;20191;-70
2022/11/21 10:37:15;;;;;;;1.90;1.80;;;;;;;7.18;74.96;94012.06;5017012;28;20199;-70
2022/11/21 10:39:44;;;;;;;2.35;1.60;;;;;;;7.13;75.17;94006.06;5016737;28;20199;-70
2022/11/21 10:42:17;;;;;;;1.90;1.80;;;;;;;7.05;75.04;94021.56;5016970;28;20202;-70
2022/11/21 10:47:33;;;;;;;1.90;1.80;;;;;;;7.07;75.66;94032.16;5016323;28;20203;-70
2022/11/21 10:50:15;;;;;;;2.00;1.90;;;;;;;7.05;76.44;94018.81;5016209;28;20195;-70
2022/11/21 10:52:45;;;;;;;2.08;1.98;;;;;;;7.07;76.03;94026.69;5032270;28;20230;-70
2022/11/21 10:55:13;;;;;;;2.05;1.90;;;;;;;7.12;76.50;94018.19;5016577;28;20242;-70
2022/11/21 10:57:44;;;;;;;1.90;1.80;;;;;;;7.07;76.30;94024.72;5016741;28;20250;-70
2022/11/21 11:00:21;;;;;;;2.45;2.25;;;;;;;7.06;75.82;94020.41;5015891;28;20301;-70
2022/11/21 11:03:06;;;;;;;2.47;2.28;;;;;;;7.02;75.45;94029.69;5015274;28;20293;-70
2022/11/21 11:05:34;;;;;;;2.17;2.00;;;;;;;6.97;75.78;94030.75;5015482;28;20210;-69
2022/11/21 11:08:09;;;;;;;2.13;2.03;;;;;;;7.02;75.94;94024.22;5015561;28;20221;-69
2022/11/21 11:10:37;;;;;;;2.42;2.22;;;;;;;7.00;76.47;94027.28;5015563;28;20205;-69
2022/11/21 11:16:06;;;;;;;2.08;1.95;;;;;;;6.98;75.73;94021.38;5014779;28;20635;-69
2022/11/21 11:18:34;;;;;;;1.70;1.60;;;;;;;6.97;75.90;94033.50;5015558;28;20210;-69
2022/11/21 11:21:18;;;;;;;2.35;2.15;;;;;;;6.96;76.24;94026.41;5035542;28;20491;-70
2022/11/21 11:23:45;;;;;;;1.63;1.52;;;;;;;7.00;75.62;94021.81;5035899;28;20190;-70
2022/11/21 11:26:21;;;;;;;1.70;1.60;;;;;;;6.96;75.53;94018.19;5035777;28;20213;-70
2022/11/21 11:28:48;;;;;;;4.03;3.83;;;;;;;6.96;75.28;94019.00;5035611;28;20205;-70
2022/11/21 11:31:17;;;;;;;4.25;4.05;;;;;;;7.01;75.60;94020.69;5018312;28;20206;-70
2022/11/21 11:33:51;;;;;;;1.88;1.77;;;;;;;7.06;76.28;94016.88;5034577;28;20195;-69
2022/11/21 11:36:28;;;;;;;2.40;2.20;;;;;;;7.09;76.56;94011.47;5035745;28;20247;-69
2022/11/21 11:38:58;;;;;;;2.00;1.90;;;;;;;7.08;76.15;94018.13;5017995;28;20500;-69
2022/11/21 11:47:29;;;;;;;2.55;2.35;;;;;;;7.04;75.96;94021.91;5035318;28;20204;-70
2022/11/21 11:47:32;;;;;;;1.88;1.77;;;;;;;7.11;75.88;94014.63;5017606;28;20195;-69
2022/11/21 11:50:11;;;;;;;2.42;2.22;;;;;;;7.08;75.74;94015.38;5035272;28;20248;-70
2022/11/21 11:52:44;;;;;;;2.20;2.10;;;;;;;7.09;75.55;94025.19;5035268;28;20233;-70
2022/11/21 11:55:16;;;;;;;4.30;4.00;;;;;;;7.11;75.30;94013.84;5035188;28;20232;-70
2022/11/21 11:57:43;;;;;;;3.72;3.25;;;;;;;7.14;75.90;94011.19;5035335;28;20195;-70
2022/11/21 12:00:24;;;;;;;2.83;2.10;;;;;;;7.04;74.47;94000.75;5035213;28;20191;-70
2022/11/21 12:02:58;;;;;;;2.05;1.85;;;;;;;7.02;74.64;94013.25;5017252;28;20198;-70